KMGG

Maple Lake Municipal-Bill Mavencamp Sr Field Airport

Maple Lake, Minnesota, USA
METAR KMGG 180015Z AUTO 00000KT 7SM CLR 03/M02 A3042 RMK AO2 T00301024
Observed Flight Rules
Oct-18 @ 00:15 UTC (30 minutes ago) Visual Flight Rules
Visibility Clouds
7 miles
  • Clear skies
Temperatures Readings
Current 3°C / 37°F
Dewpoint -2°C / 28°F
Humidity 70%
Altimeter 30.42" Hg
Pressure 1030 hPa
Elevation 313
METAR KMGG 180015Z AUTO 00000KT 7SM CLR 03/M02 A3042 RMK AO2 T00301024
Observed Flight Rules
Oct-18 @ 00:15 UTC
(30 minutes ago)
VFR
Clouds
  • Clear skies
Temperature Dewpoint
3°C / 37°F -2°C / 28°F
Humidity Altimeter Pressure
70% 30.42" Hg 1030 hPa